Time;durP1;ratioP1;P1;durP2;ratioP2;P2;SDS_P1;SDS_P2;PMS_P1;PMS_P2;Temp;Humidity;BMP_temperature;BMP_pressure;BME280_temperature;BME280_humidity;BME280_pressure;Samples;Min_cycle;Max_cycle;Signal;HPM_P1;HPM_P2
2022/07/10 03:01:56;;;;;;;3.42;1.40;;;25.00;45.00;;;;;;5236058;23;45687;-62
2022/07/10 03:04:22;;;;;;;3.17;1.15;;;25.00;45.00;;;;;;4936050;28;45325;-59
2022/07/10 03:06:47;;;;;;;4.32;1.55;;;25.00;45.00;;;;;;4923701;28;47135;-59
2022/07/10 03:09:13;;;;;;;2.17;1.33;;;25.00;45.00;;;;;;4925396;28;45131;-56
2022/07/10 03:11:39;;;;;;;1.98;0.95;;;25.00;44.90;;;;;;4935963;28;44966;-59
2022/07/10 03:14:05;;;;;;;2.33;1.40;;;25.00;44.80;;;;;;4929802;28;44711;-56
2022/07/10 03:16:32;;;;;;;2.83;1.40;;;25.00;44.80;;;;;;4926825;28;46747;-59
2022/07/10 03:18:57;;;;;;;1.92;1.33;;;25.00;44.80;;;;;;4933209;28;45198;-56
2022/07/10 03:21:23;;;;;;;1.77;1.20;;;25.00;44.70;;;;;;4929966;28;45155;-58
2022/07/10 03:23:50;;;;;;;2.40;1.33;;;25.00;44.60;;;;;;4932714;28;44749;-55
2022/07/10 03:26:15;;;;;;;2.42;1.05;;;25.00;44.60;;;;;;4934687;28;46134;-59
2022/07/10 03:28:41;;;;;;;1.67;1.10;;;25.00;44.60;;;;;;4929612;28;44917;-55
2022/07/10 03:31:07;;;;;;;2.28;1.25;;;25.00;44.60;;;;;;4922430;28;45120;-55
2022/07/10 03:33:33;;;;;;;2.42;1.38;;;25.00;44.60;;;;;;4930092;28;45034;-57
2022/07/10 03:36:01;;;;;;;1.98;1.10;;;25.00;44.50;;;;;;4932926;28;46207;-58
2022/07/10 03:38:27;;;;;;;2.17;0.93;;;25.00;44.40;;;;;;4928456;28;45518;-59
2022/07/10 03:40:53;;;;;;;1.73;1.10;;;25.00;44.30;;;;;;4920223;28;45171;-54
2022/07/10 03:43:18;;;;;;;2.88;1.00;;;25.00;44.40;;;;;;4937859;28;45453;-56
2022/07/10 03:45:44;;;;;;;1.30;1.13;;;25.00;44.30;;;;;;4929099;28;45813;-58
2022/07/10 03:48:10;;;;;;;1.73;0.93;;;25.00;44.30;;;;;;4935408;28;45157;-58
2022/07/10 03:50:36;;;;;;;1.65;1.00;;;25.00;44.30;;;;;;4927924;28;45032;-55
2022/07/10 03:53:01;;;;;;;2.28;1.60;;;24.90;44.20;;;;;;4939614;28;45773;-57
2022/07/10 03:55:27;;;;;;;2.67;1.50;;;25.00;44.20;;;;;;4924569;28;47463;-59
2022/07/10 03:57:53;;;;;;;2.42;1.30;;;24.90;44.20;;;;;;4937060;28;45271;-52
2022/07/10 04:00:22;;;;;;;1.73;1.20;;;25.00;44.20;;;;;;4932869;28;45564;-54
2022/07/10 04:02:54;;;;;;;2.55;1.38;;;25.00;44.10;;;;;;4932367;28;45307;-55
2022/07/10 04:05:19;;;;;;;2.72;1.33;;;24.90;44.00;;;;;;4928817;28;46209;-61
2022/07/10 04:07:45;;;;;;;2.03;1.23;;;24.90;44.00;;;;;;4936453;28;44992;-57
2022/07/10 04:10:11;;;;;;;1.90;1.13;;;25.00;43.90;;;;;;4931826;28;45180;-56
2022/07/10 04:12:36;;;;;;;4.30;1.40;;;24.90;44.00;;;;;;4934195;28;45761;-56
2022/07/10 04:15:03;;;;;;;2.17;0.98;;;24.90;43.80;;;;;;4931903;28;45971;-60
2022/07/10 04:17:29;;;;;;;1.73;1.08;;;24.90;43.70;;;;;;4933250;28;44722;-54
2022/07/10 04:19:54;;;;;;;3.22;1.10;;;24.90;43.80;;;;;;4926739;28;45117;-62
2022/07/10 04:22:20;;;;;;;2.25;1.15;;;24.80;43.70;;;;;;4936259;28;45203;-54
2022/07/10 04:24:46;;;;;;;1.55;0.90;;;24.80;43.70;;;;;;4929380;28;45932;-54
2022/07/10 04:27:12;;;;;;;1.42;0.90;;;24.80;43.70;;;;;;4930880;28;45272;-58
2022/07/10 04:29:37;;;;;;;1.77;0.90;;;24.90;43.60;;;;;;4935208;28;44575;-55
2022/07/10 04:32:04;;;;;;;1.23;0.90;;;24.90;43.50;;;;;;4929616;28;45336;-59
2022/07/10 04:34:29;;;;;;;2.63;1.00;;;24.80;44.10;;;;;;4934323;28;45948;-64
2022/07/10 04:36:55;;;;;;;0.85;0.80;;;24.80;43.40;;;;;;4936130;28;45252;-52
2022/07/10 04:39:21;;;;;;;3.53;1.00;;;24.80;43.50;;;;;;4927704;28;45671;-64
2022/07/10 04:41:47;;;;;;;2.05;0.82;;;24.80;43.40;;;;;;4926658;28;45218;-65
2022/07/10 04:44:13;;;;;;;1.98;1.02;;;24.80;43.40;;;;;;4929694;28;46117;-61
2022/07/10 04:46:39;;;;;;;2.80;1.30;;;24.80;43.40;;;;;;4930155;28;44902;-60
2022/07/10 04:49:04;;;;;;;1.95;0.95;;;24.80;43.40;;;;;;4930618;28;45171;-58
2022/07/10 04:51:30;;;;;;;1.08;0.70;;;24.80;43.20;;;;;;4930452;28;45969;-60
2022/07/10 04:53:56;;;;;;;2.83;0.93;;;24.80;43.20;;;;;;4930085;28;45955;-61
2022/07/10 04:56:22;;;;;;;1.90;0.93;;;24.80;43.10;;;;;;4931085;28;46229;-57
2022/07/10 04:58:48;;;;;;;1.42;0.80;;;24.80;43.00;;;;;;4931739;28;45050;-61
2022/07/10 05:01:14;;;;;;;1.88;0.80;;;24.80;43.00;;;;;;4929341;28;45250;-61
2022/07/10 05:03:39;;;;;;;3.42;0.75;;;24.70;42.90;;;;;;4907572;28;46234;-61
2022/07/10 05:06:05;;;;;;;0.98;0.73;;;24.70;42.90;;;;;;4929721;28;45408;-61
2022/07/10 05:08:31;;;;;;;1.95;0.93;;;24.70;42.70;;;;;;4932345;28;45343;-58
2022/07/10 05:10:57;;;;;;;1.42;0.90;;;24.70;42.50;;;;;;4899593;28;45613;-58
2022/07/10 05:13:22;;;;;;;1.60;0.98;;;24.70;42.40;;;;;;4925528;28;45890;-60
2022/07/10 05:15:49;;;;;;;0.90;0.60;;;24.60;42.40;;;;;;4930074;28;45276;-58
2022/07/10 05:18:15;;;;;;;2.47;0.70;;;24.60;42.40;;;;;;4929104;28;44795;-62
2022/07/10 05:20:43;;;;;;;2.65;0.63;;;24.60;42.30;;;;;;4929799;28;45077;-61
2022/07/10 05:23:09;;;;;;;1.75;0.68;;;24.60;42.00;;;;;;4928051;28;46196;-60
2022/07/10 05:25:37;;;;;;;2.08;0.68;;;24.60;41.80;;;;;;4930103;28;45582;-58
2022/07/10 05:28:04;;;;;;;1.40;0.60;;;24.60;41.70;;;;;;4928150;28;45542;-61
2022/07/10 05:30:30;;;;;;;1.92;0.80;;;24.60;41.60;;;;;;4922373;28;45037;-61
2022/07/10 05:32:55;;;;;;;3.13;1.00;;;24.60;41.50;;;;;;4897740;28;46132;-65
2022/07/10 05:35:21;;;;;;;1.42;0.77;;;24.60;41.30;;;;;;4914150;28;45443;-58
2022/07/10 05:37:47;;;;;;;1.80;0.60;;;24.60;41.10;;;;;;4929424;28;45316;-64
2022/07/10 05:40:13;;;;;;;2.35;0.60;;;24.70;40.90;;;;;;4935020;28;45461;-59
2022/07/10 05:42:38;;;;;;;1.20;0.57;;;24.60;41.00;;;;;;4931483;28;46165;-59
2022/07/10 05:45:05;;;;;;;1.42;0.52;;;24.60;41.00;;;;;;4930802;28;45365;-59
2022/07/10 05:47:31;;;;;;;1.98;0.70;;;24.60;40.90;;;;;;4933607;28;45664;-60
2022/07/10 05:49:57;;;;;;;1.35;0.75;;;24.70;40.50;;;;;;4931838;28;46287;-59
2022/07/10 05:52:22;;;;;;;1.13;0.57;;;24.70;40.60;;;;;;4915267;28;46155;-58
2022/07/10 05:54:48;;;;;;;1.77;0.50;;;24.80;40.60;;;;;;4931933;28;44750;-58
2022/07/10 05:57:14;;;;;;;1.42;0.60;;;24.70;40.50;;;;;;4934700;28;45599;-58
2022/07/10 05:59:40;;;;;;;2.03;0.80;;;24.70;40.50;;;;;;4928313;28;45687;-63
2022/07/10 06:02:05;;;;;;;3.55;0.82;;;24.70;40.50;;;;;;4930688;28;46382;-61
2022/07/10 06:04:31;;;;;;;2.17;0.77;;;24.70;40.40;;;;;;4927777;28;45040;-58
2022/07/10 06:06:57;;;;;;;1.75;0.70;;;24.70;40.30;;;;;;4930366;28;45186;-58
2022/07/10 06:09:23;;;;;;;1.73;0.80;;;24.70;40.30;;;;;;4925779;28;45462;-57
2022/07/10 06:11:49;;;;;;;1.27;0.65;;;24.70;40.30;;;;;;4931269;28;45384;-61
2022/07/10 06:14:15;;;;;;;1.23;0.63;;;24.70;40.10;;;;;;4929406;28;45179;-57
2022/07/10 06:16:40;;;;;;;2.47;0.85;;;24.70;40.10;;;;;;4929985;28;45534;-64
2022/07/10 06:19:06;;;;;;;3.47;0.90;;;24.70;40.10;;;;;;4913677;28;45070;-59
2022/07/10 06:21:32;;;;;;;2.00;0.80;;;24.80;40.00;;;;;;4931326;28;46798;-60
2022/07/10 06:23:58;;;;;;;1.25;0.65;;;24.70;40.00;;;;;;4928520;28;45545;-58
2022/07/10 06:26:24;;;;;;;3.15;0.80;;;24.80;39.80;;;;;;4932112;28;45499;-59
2022/07/10 06:28:50;;;;;;;3.60;0.75;;;24.80;39.70;;;;;;4931736;28;45592;-60
2022/07/10 06:31:16;;;;;;;1.90;0.80;;;24.80;39.70;;;;;;4930737;28;46862;-59
2022/07/10 06:33:42;;;;;;;4.07;0.60;;;24.90;39.60;;;;;;4936188;28;45291;-59
2022/07/10 06:36:07;;;;;;;1.58;0.70;;;24.90;39.50;;;;;;4931622;28;44797;-58
2022/07/10 06:38:33;;;;;;;2.83;0.55;;;25.00;39.40;;;;;;4936149;28;45463;-54
2022/07/10 06:40:59;;;;;;;3.42;0.50;;;24.90;39.40;;;;;;4939943;28;45103;-56
2022/07/10 06:43:25;;;;;;;5.20;0.80;;;25.00;39.10;;;;;;4938189;28;45654;-59
2022/07/10 06:45:50;;;;;;;1.52;0.50;;;25.00;38.80;;;;;;4937525;28;45187;-59
2022/07/10 06:48:16;;;;;;;1.15;0.60;;;25.00;38.50;;;;;;4938967;28;45432;-55
2022/07/10 06:50:42;;;;;;;2.80;0.63;;;24.90;38.40;;;;;;4930374;28;47077;-58
2022/07/10 06:53:08;;;;;;;3.30;1.20;;;24.90;38.10;;;;;;4950936;28;45242;-54
2022/07/10 06:55:34;;;;;;;3.67;0.90;;;24.90;37.60;;;;;;4948463;28;45545;-56
2022/07/10 06:57:59;;;;;;;2.50;0.75;;;24.80;37.00;;;;;;4929055;28;45160;-62
2022/07/10 07:00:25;;;;;;;3.67;0.90;;;24.80;36.60;;;;;;4936479;28;47063;-57
2022/07/10 07:02:51;;;;;;;1.75;0.52;;;24.70;36.60;;;;;;4935714;28;44698;-57
2022/07/10 07:05:17;;;;;;;2.85;0.70;;;24.70;36.40;;;;;;4932568;28;44870;-58
2022/07/10 07:07:43;;;;;;;2.78;0.57;;;24.70;36.40;;;;;;4936394;28;45155;-56
2022/07/10 07:10:09;;;;;;;1.90;0.60;;;24.60;36.40;;;;;;4937738;28;46899;-56
2022/07/10 07:12:35;;;;;;;2.67;0.80;;;24.60;36.30;;;;;;4934789;28;44686;-56
2022/07/10 07:15:01;;;;;;;2.63;0.60;;;24.60;36.10;;;;;;4932064;28;45567;-57
2022/07/10 07:17:33;;;;;;;3.03;0.85;;;24.60;36.10;;;;;;4935185;28;44718;-59
2022/07/10 07:25:29;;;;;;;1.95;0.40;;;24.50;35.80;;;;;;4933961;28;44863;-54
2022/07/10 07:27:54;;;;;;;3.75;0.77;;;24.50;35.80;;;;;;4941281;28;45295;-59
2022/07/10 07:30:20;;;;;;;2.75;0.90;;;24.50;35.70;;;;;;4943752;28;45962;-55
2022/07/10 07:32:47;;;;;;;3.00;0.60;;;24.50;35.50;;;;;;4932532;28;45284;-66
2022/07/10 07:35:14;;;;;;;3.25;0.70;;;24.50;35.40;;;;;;4932564;28;45218;-58
2022/07/10 07:37:47;;;;;;;1.40;0.45;;;24.50;35.30;;;;;;4930724;28;45192;-59
2022/07/10 07:40:16;;;;;;;;;;;24.40;35.40;;;;;;4937505;28;46049;-58
2022/07/10 07:42:42;;;;;;;1.77;0.60;;;24.40;34.10;;;;;;4928543;28;45234;-57
2022/07/10 07:45:08;;;;;;;0.90;0.40;;;24.40;35.20;;;;;;4936378;28;44642;-67
2022/07/10 07:47:43;;;;;;;0.70;0.32;;;24.30;35.20;;;;;;4934594;28;45270;-58
2022/07/10 07:50:09;;;;;;;2.20;0.60;;;24.30;34.60;;;;;;4941903;28;46106;-58
2022/07/10 07:52:35;;;;;;;0.98;0.40;;;24.20;35.00;;;;;;4938165;28;44771;-54
2022/07/10 07:55:01;;;;;;;1.50;0.60;;;24.30;35.00;;;;;;4930308;28;45232;-55
2022/07/10 07:57:29;;;;;;;1.23;0.55;;;24.30;34.90;;;;;;4938447;28;45370;-59
2022/07/10 07:59:54;;;;;;;1.33;0.43;;;24.30;34.80;;;;;;4932969;28;46241;-58
2022/07/10 08:02:21;;;;;;;3.88;0.32;;;24.30;35.00;;;;;;4929478;28;45401;-64
2022/07/10 08:04:47;;;;;;;0.90;0.38;;;24.20;34.90;;;;;;4924177;28;45541;-65
2022/07/10 08:07:12;;;;;;;0.88;0.35;;;24.20;35.00;;;;;;4929262;28;45421;-60
2022/07/10 08:09:38;;;;;;;1.02;0.57;;;24.10;35.00;;;;;;4935818;28;45374;-55
2022/07/10 08:12:04;;;;;;;0.93;0.40;;;24.00;35.00;;;;;;4934295;28;45127;-58
2022/07/10 08:14:30;;;;;;;0.88;0.25;;;23.90;35.00;;;;;;4931094;28;44857;-60
2022/07/10 08:16:56;;;;;;;3.78;0.50;;;23.80;35.00;;;;;;4927640;28;45418;-58
2022/07/10 08:19:22;;;;;;;0.85;0.40;;;23.80;34.90;;;;;;4952407;28;46843;-57
2022/07/10 08:21:47;;;;;;;2.67;0.30;;;23.70;34.80;;;;;;4943125;28;45204;-58
2022/07/10 08:24:14;;;;;;;0.73;0.43;;;23.60;34.90;;;;;;4937670;28;45188;-58
2022/07/10 08:26:40;;;;;;;3.05;0.50;;;23.60;35.00;;;;;;4936175;28;45198;-62
2022/07/10 08:29:06;;;;;;;2.95;0.20;;;23.60;34.90;;;;;;4928635;28;46111;-55
2022/07/10 08:31:33;;;;;;;1.33;0.57;;;23.60;34.90;;;;;;4930908;28;45190;-57
2022/07/10 08:33:59;;;;;;;3.85;0.70;;;23.50;35.00;;;;;;4934530;28;45358;-60
2022/07/10 08:36:26;;;;;;;2.08;0.90;;;23.50;35.00;;;;;;4932975;28;45351;-54
2022/07/10 08:38:55;;;;;;;0.70;0.43;;;23.50;35.00;;;;;;4929428;28;46065;-56
2022/07/10 08:41:24;;;;;;;1.40;0.43;;;23.50;35.00;;;;;;4930179;28;45219;-60
2022/07/10 08:43:50;;;;;;;2.42;0.40;;;23.50;35.00;;;;;;4905331;28;45627;-58
2022/07/10 08:46:15;;;;;;;1.00;0.30;;;23.50;35.00;;;;;;4929055;28;45548;-56
2022/07/10 08:48:41;;;;;;;1.67;0.40;;;23.50;35.00;;;;;;4911373;28;47165;-59
2022/07/10 08:51:07;;;;;;;1.15;0.47;;;23.40;34.90;;;;;;4903360;28;44757;-57
2022/07/10 08:53:32;;;;;;;1.35;0.40;;;23.40;35.10;;;;;;4917061;28;45328;-56
2022/07/10 08:55:58;;;;;;;1.15;0.40;;;23.40;35.20;;;;;;4932180;28;44671;-55
2022/07/10 08:58:24;;;;;;;1.17;0.30;;;23.40;35.00;;;;;;4934427;28;46237;-52
2022/07/10 09:00:50;;;;;;;1.48;0.28;;;23.40;35.10;;;;;;4910190;28;45382;-59
2022/07/10 09:03:15;;;;;;;0.50;0.13;;;23.30;35.30;;;;;;4927444;28;45038;-56
2022/07/10 09:05:41;;;;;;;1.80;0.45;;;23.30;35.40;;;;;;4932317;28;45190;-53
2022/07/10 09:08:23;;;;;;;1.80;0.30;;;23.30;35.40;;;;;;4932949;28;45295;-58
2022/07/10 09:10:50;;;;;;;2.65;0.40;;;23.30;35.00;;;;;;4916047;28;45182;-55
2022/07/10 09:13:16;;;;;;;2.45;0.40;;;23.30;35.50;;;;;;4935378;28;45186;-57
2022/07/10 09:15:47;;;;;;;2.25;0.80;;;23.30;35.50;;;;;;4912814;28;45372;-56
2022/07/10 09:18:13;;;;;;;2.60;1.00;;;23.30;35.50;;;;;;4921819;28;46169;-59
2022/07/10 09:20:40;;;;;;;2.67;1.10;;;23.30;35.50;;;;;;4916878;28;45344;-61
2022/07/10 09:23:20;;;;;;;2.75;1.05;;;23.20;35.60;;;;;;4928355;28;45365;-56
2022/07/10 09:25:49;;;;;;;2.67;0.80;;;23.20;35.40;;;;;;4935175;28;44829;-59
2022/07/10 09:28:20;;;;;;;2.08;0.70;;;23.10;35.90;;;;;;4924614;28;45652;-55
2022/07/10 09:30:46;;;;;;;3.67;1.40;;;23.20;35.90;;;;;;4929092;28;45390;-60
2022/07/10 09:33:29;;;;;;;4.38;1.90;;;23.20;36.00;;;;;;4930850;28;45405;-61
2022/07/10 09:36:07;;;;;;;3.15;1.33;;;23.20;35.50;;;;;;4897634;28;44777;-57
2022/07/10 09:38:45;;;;;;;3.65;1.23;;;23.20;35.90;;;;;;4930700;28;46225;-59
2022/07/10 09:41:25;;;;;;;3.10;1.40;;;23.20;35.70;;;;;;4929006;28;45126;-62
2022/07/10 09:43:55;;;;;;;3.17;1.27;;;23.20;35.90;;;;;;4938175;28;45398;-55
2022/07/10 09:46:25;;;;;;;2.17;0.90;;;23.20;36.00;;;;;;4934861;28;45311;-55
2022/07/10 09:49:27;;;;;;;3.10;0.77;;;23.20;36.10;;;;;;4928874;28;46042;-56
2022/07/10 09:51:53;;;;;;;2.15;0.75;;;23.30;35.90;;;;;;4890470;28;45351;-62
2022/07/10 09:54:19;;;;;;;2.97;0.80;;;23.30;36.90;;;;;;4921926;28;45228;-62
2022/07/10 09:56:51;;;;;;;4.32;0.60;;;23.30;36.20;;;;;;4920689;28;44966;-58
2022/07/10 09:59:17;;;;;;;1.35;0.50;;;23.20;36.30;;;;;;4927174;28;45748;-56
2022/07/10 10:01:45;;;;;;;1.58;0.70;;;23.20;36.60;;;;;;4928912;28;45511;-63
2022/07/10 10:04:12;;;;;;;1.23;0.40;;;23.20;36.70;;;;;;4935105;28;45268;-62
2022/07/10 10:06:38;;;;;;;1.40;0.40;;;23.20;36.60;;;;;;4929138;28;45360;-61
2022/07/10 10:09:10;;;;;;;2.75;0.50;;;23.20;36.60;;;;;;4914984;28;46066;-59
2022/07/10 10:11:39;;;;;;;1.02;0.30;;;23.20;36.60;;;;;;4908311;28;45341;-54
2022/07/10 10:14:04;;;;;;;2.83;0.43;;;23.20;36.70;;;;;;4920164;28;45016;-57
2022/07/10 10:16:30;;;;;;;1.65;0.50;;;23.20;36.80;;;;;;4884079;28;45633;-60
2022/07/10 10:21:40;;;;;;;2.90;0.63;;;23.20;36.80;;;;;;4916146;28;45321;-56
2022/07/10 10:24:06;;;;;;;1.77;0.47;;;23.20;36.90;;;;;;4927895;28;45636;-61
2022/07/10 10:26:32;;;;;;;1.63;0.60;;;23.20;37.00;;;;;;4934877;28;45654;-56
2022/07/10 10:29:00;;;;;;;1.38;0.73;;;23.20;36.90;;;;;;4926902;28;46093;-55
2022/07/10 10:31:27;;;;;;;3.25;0.40;;;23.20;36.80;;;;;;4903804;28;44774;-56
2022/07/10 10:33:55;;;;;;;1.33;0.40;;;23.10;36.90;;;;;;4939087;28;45280;-56
2022/07/10 10:36:36;;;;;;;1.73;0.50;;;23.20;37.00;;;;;;4928751;28;45195;-56
2022/07/10 10:39:13;;;;;;;1.33;0.38;;;23.10;37.50;;;;;;4933059;28;45583;-56
2022/07/10 10:41:44;;;;;;;0.93;0.50;;;23.20;36.90;;;;;;4932167;28;45216;-57
2022/07/10 10:44:15;;;;;;;2.65;0.50;;;23.20;37.00;;;;;;4938752;28;45186;-54
2022/07/10 10:46:50;;;;;;;3.63;0.47;;;23.20;37.10;;;;;;4919076;28;45109;-53
2022/07/10 10:49:16;;;;;;;1.95;0.60;;;23.20;36.80;;;;;;4938270;28;46488;-56
2022/07/10 10:52:02;;;;;;;1.58;0.40;;;23.20;36.80;;;;;;4940478;28;45268;-58
2022/07/10 10:54:29;;;;;;;3.42;0.57;;;23.20;36.40;;;;;;4930714;28;45451;-59
2022/07/10 10:57:16;;;;;;;2.42;0.60;;;23.20;36.80;;;;;;4931573;28;45176;-57
2022/07/10 10:59:46;;;;;;;1.45;0.45;;;23.20;36.60;;;;;;4928837;28;46029;-58
2022/07/10 11:02:35;;;;;;;1.83;0.50;;;23.20;36.90;;;;;;4933199;28;45454;-58
2022/07/10 11:05:13;;;;;;;1.45;0.70;;;23.20;36.80;;;;;;4937646;28;45317;-57
2022/07/10 11:08:01;;;;;;;1.02;0.50;;;23.20;37.00;;;;;;4932804;28;44681;-65
2022/07/10 11:10:30;;;;;;;1.55;0.30;;;23.10;37.10;;;;;;4931710;28;46876;-59
2022/07/10 11:13:00;;;;;;;1.55;0.30;;;23.10;37.30;;;;;;4934642;28;46120;-60
2022/07/10 11:15:29;;;;;;;2.08;0.40;;;23.10;37.40;;;;;;4926538;28;45459;-58
2022/07/10 11:17:58;;;;;;;0.63;0.30;;;23.00;37.20;;;;;;4923182;28;44872;-61
2022/07/10 11:20:24;;;;;;;0.65;0.40;;;23.00;37.20;;;;;;4916723;28;46039;-64
2022/07/10 11:23:17;;;;;;;2.25;0.43;;;23.00;37.20;;;;;;4909354;28;45398;-61
2022/07/10 11:26:00;;;;;;;1.15;0.30;;;23.00;37.00;;;;;;4917389;28;45284;-64
2022/07/10 11:28:26;;;;;;;1.00;0.50;;;23.00;37.30;;;;;;4927152;28;45718;-61
2022/07/10 11:30:54;;;;;;;1.23;0.35;;;23.10;37.30;;;;;;4910990;28;46245;-63
2022/07/10 11:33:23;;;;;;;0.50;0.30;;;23.10;37.90;;;;;;4915791;28;45446;-57
2022/07/10 11:35:50;;;;;;;1.55;0.40;;;23.10;37.20;;;;;;4905832;28;45363;-55
2022/07/10 11:38:23;;;;;;;4.28;0.40;;;23.00;37.20;;;;;;4935298;28;45168;-52
2022/07/10 11:40:49;;;;;;;0.65;0.30;;;23.10;37.10;;;;;;4932092;28;45906;-56
2022/07/10 11:43:17;;;;;;;0.47;0.20;;;23.10;37.10;;;;;;4932144;28;45194;-54
2022/07/10 11:45:42;;;;;;;2.67;0.47;;;23.00;37.00;;;;;;4937222;28;45427;-54
2022/07/10 11:48:08;;;;;;;4.43;0.50;;;23.00;37.00;;;;;;4937997;28;45220;-58
2022/07/10 11:50:36;;;;;;;2.75;0.60;;;23.00;37.00;;;;;;4906514;28;45021;-54
2022/07/10 11:53:01;;;;;;;2.50;0.50;;;23.00;37.00;;;;;;4927985;28;45212;-56
2022/07/10 11:55:29;;;;;;;0.35;0.13;;;23.00;37.00;;;;;;4913183;28;45220;-58
2022/07/10 11:57:54;;;;;;;1.10;0.30;;;23.00;36.80;;;;;;4927755;28;45272;-54
2022/07/10 12:00:29;;;;;;;0.47;0.25;;;23.00;36.80;;;;;;4929303;28;46046;-60
2022/07/10 12:02:55;;;;;;;2.58;0.52;;;23.00;37.10;;;;;;4931580;28;45200;-55
2022/07/10 12:05:34;;;;;;;1.52;0.38;;;23.00;36.80;;;;;;4932648;28;45585;-54
2022/07/10 12:08:00;;;;;;;4.25;0.50;;;23.00;36.20;;;;;;4929609;28;44727;-61
2022/07/10 12:10:26;;;;;;;0.65;0.20;;;23.00;36.40;;;;;;4938966;28;46904;-55
2022/07/10 12:12:52;;;;;;;0.73;0.40;;;23.00;36.40;;;;;;4932039;28;45355;-58
2022/07/10 12:15:44;;;;;;;0.70;0.40;;;23.00;36.20;;;;;;4919601;28;45203;-56
2022/07/10 12:18:17;;;;;;;0.40;0.40;;;23.10;35.90;;;;;;4928300;28;46102;-57
2022/07/10 12:20:45;;;;;;;1.00;0.40;;;23.10;36.20;;;;;;4933054;28;47048;-53
2022/07/10 12:23:14;;;;;;;2.67;0.55;;;23.00;36.30;;;;;;4905655;28;45350;-55
2022/07/10 12:25:40;;;;;;;0.30;0.20;;;23.00;36.20;;;;;;4919062;28;45456;-55
2022/07/10 12:28:06;;;;;;;1.95;0.50;;;23.00;36.10;;;;;;4907901;28;45213;-55
2022/07/10 12:30:41;;;;;;;0.75;0.40;;;23.00;36.10;;;;;;4917560;28;46992;-59
2022/07/10 12:33:16;;;;;;;1.33;0.30;;;23.00;35.90;;;;;;4935637;28;45515;-64
2022/07/10 12:35:56;;;;;;;1.00;0.30;;;23.00;36.20;;;;;;4934551;28;45379;-58
2022/07/10 12:38:24;;;;;;;0.70;0.35;;;23.00;36.10;;;;;;4931298;28;45169;-58
2022/07/10 12:40:51;;;;;;;1.63;0.63;;;23.00;36.30;;;;;;4932761;28;45721;-53
2022/07/10 12:43:27;;;;;;;2.15;0.77;;;23.00;36.30;;;;;;4917167;28;45252;-59
2022/07/10 12:46:11;;;;;;;1.63;0.90;;;23.00;36.10;;;;;;4918948;28;45509;-56
2022/07/10 12:48:37;;;;;;;1.02;0.50;;;23.00;35.80;;;;;;4927025;28;45129;-53
2022/07/10 12:51:26;;;;;;;1.63;0.70;;;23.00;36.20;;;;;;4928806;28;47167;-55
2022/07/10 12:53:52;;;;;;;2.58;0.88;;;23.00;35.80;;;;;;4928771;28;45391;-58
2022/07/10 12:56:37;;;;;;;2.05;0.77;;;23.00;36.20;;;;;;4934344;28;46112;-57
2022/07/10 12:59:15;;;;;;;2.38;0.70;;;23.00;36.00;;;;;;4928259;28;45746;-56
2022/07/10 13:01:44;;;;;;;1.55;0.70;;;23.10;36.30;;;;;;4903297;28;46312;-55
2022/07/10 13:04:10;;;;;;;1.35;0.50;;;23.10;36.10;;;;;;4926674;28;45166;-53
2022/07/10 13:06:36;;;;;;;1.25;0.60;;;23.00;36.20;;;;;;4933535;28;45474;-60
2022/07/10 13:09:02;;;;;;;1.92;0.60;;;23.00;36.10;;;;;;4914240;28;45339;-55
2022/07/10 13:11:28;;;;;;;1.50;0.22;;;23.10;36.10;;;;;;4914901;28;46055;-56
2022/07/10 13:13:54;;;;;;;1.17;0.35;;;23.10;36.00;;;;;;4927114;28;45250;-54
2022/07/10 13:16:21;;;;;;;1.88;0.57;;;23.10;36.00;;;;;;4929810;28;45212;-60
2022/07/10 13:18:47;;;;;;;0.85;0.60;;;23.20;35.90;;;;;;4933981;28;45345;-68
2022/07/10 13:21:12;;;;;;;2.47;0.25;;;23.20;36.10;;;;;;4928840;28;46039;-58
2022/07/10 13:23:38;;;;;;;0.85;0.30;;;23.20;36.60;;;;;;4932502;28;45473;-57
2022/07/10 13:26:06;;;;;;;0.47;0.30;;;23.10;36.00;;;;;;4928565;28;45308;-57
2022/07/10 13:28:32;;;;;;;1.10;0.43;;;23.10;36.00;;;;;;4928691;28;45062;-57
2022/07/10 13:30:58;;;;;;;0.38;0.20;;;23.20;36.00;;;;;;4916259;28;46296;-59
2022/07/10 13:33:24;;;;;;;1.48;0.43;;;23.20;36.00;;;;;;4925383;28;44685;-59
2022/07/10 13:35:49;;;;;;;1.52;0.55;;;23.20;36.10;;;;;;4933365;28;46165;-57
2022/07/10 13:38:17;;;;;;;1.55;0.60;;;23.20;36.20;;;;;;4927658;28;45585;-55
2022/07/10 13:40:43;;;;;;;2.20;0.47;;;23.10;36.20;;;;;;4922219;28;46015;-57
2022/07/10 13:43:09;;;;;;;2.05;0.90;;;23.10;36.20;;;;;;4932817;28;45391;-58
2022/07/10 13:45:42;;;;;;;6.13;0.70;;;23.10;36.20;;;;;;4930202;28;44646;-58
2022/07/10 13:48:09;;;;;;;1.95;0.55;;;23.20;36.30;;;;;;4908486;28;45155;-61
2022/07/10 13:50:37;;;;;;;0.98;0.30;;;23.20;36.20;;;;;;4906458;28;46177;-63
2022/07/10 13:53:02;;;;;;;0.60;0.30;;;23.20;36.20;;;;;;4930576;28;45265;-60
2022/07/10 13:55:28;;;;;;;0.70;0.30;;;23.20;36.10;;;;;;4929000;28;45149;-61
2022/07/10 13:57:54;;;;;;;0.40;0.20;;;23.20;36.10;;;;;;4932146;28;45299;-59
2022/07/10 14:00:19;;;;;;;0.40;0.30;;;23.20;36.00;;;;;;4932310;28;45965;-59
2022/07/10 14:02:45;;;;;;;1.63;0.38;;;23.30;36.10;;;;;;4930248;28;45219;-58
2022/07/10 14:05:10;;;;;;;0.30;0.30;;;23.30;36.10;;;;;;4932649;28;45243;-58
2022/07/10 14:07:36;;;;;;;1.10;0.50;;;23.30;36.10;;;;;;4929460;28;44989;-59
2022/07/10 14:10:02;;;;;;;3.55;0.63;;;23.30;36.10;;;;;;4931608;28;46100;-62
2022/07/10 14:12:28;;;;;;;1.67;0.70;;;23.40;36.10;;;;;;4927513;28;45150;-58
2022/07/10 14:14:54;;;;;;;1.50;0.50;;;23.40;36.10;;;;;;4914026;28;45118;-63
2022/07/10 14:17:19;;;;;;;0.63;0.32;;;23.40;36.10;;;;;;4931480;28;45484;-57
2022/07/10 14:19:45;;;;;;;0.82;0.38;;;23.40;36.00;;;;;;4930063;28;45944;-59
2022/07/10 14:22:11;;;;;;;2.53;0.52;;;23.40;35.90;;;;;;4931195;28;45513;-56
2022/07/10 14:24:36;;;;;;;2.65;0.77;;;23.40;35.90;;;;;;4929774;28;45207;-61
2022/07/10 14:27:03;;;;;;;1.58;0.45;;;23.40;35.90;;;;;;4932891;28;45335;-60
2022/07/10 14:29:28;;;;;;;1.00;0.47;;;23.40;36.00;;;;;;4930224;28;45376;-61
2022/07/10 14:31:54;;;;;;;1.83;0.60;;;23.40;36.10;;;;;;4925134;28;45407;-59
2022/07/10 14:34:20;;;;;;;3.50;0.70;;;23.40;36.10;;;;;;4914997;28;45217;-60
2022/07/10 14:36:45;;;;;;;2.90;0.93;;;23.40;36.10;;;;;;4930830;28;45545;-61
2022/07/10 14:39:14;;;;;;;1.63;0.68;;;23.50;36.00;;;;;;4928359;28;46107;-59
2022/07/10 14:41:39;;;;;;;5.05;0.82;;;23.50;35.90;;;;;;4927884;28;45433;-61
2022/07/10 14:44:06;;;;;;;2.58;0.82;;;23.50;35.90;;;;;;4929943;28;45559;-59
2022/07/10 14:46:32;;;;;;;5.47;0.80;;;23.50;35.80;;;;;;4929362;28;45667;-60
2022/07/10 14:48:57;;;;;;;1.55;0.70;;;23.50;35.80;;;;;;4933240;28;46124;-60
2022/07/10 14:51:23;;;;;;;1.92;0.60;;;23.50;36.00;;;;;;4926617;28;44752;-62
2022/07/10 14:53:49;;;;;;;2.63;0.75;;;23.50;36.00;;;;;;4931709;28;46722;-59
2022/07/10 14:56:19;;;;;;;3.50;0.70;;;23.40;35.90;;;;;;4927000;28;45604;-60
2022/07/10 14:58:45;;;;;;;4.45;1.55;;;23.40;36.10;;;;;;4929075;28;45928;-60
2022/07/10 15:01:11;;;;;;;4.60;1.50;;;23.50;36.10;;;;;;4930434;28;45710;-57
2022/07/10 15:03:37;;;;;;;4.35;1.45;;;23.50;36.00;;;;;;4926745;28;45311;-62
2022/07/10 15:06:02;;;;;;;2.50;1.02;;;23.50;36.10;;;;;;4929270;28;45330;-60
2022/07/10 15:08:28;;;;;;;3.75;1.15;;;23.50;36.00;;;;;;4912047;28;45557;-58
2022/07/10 15:10:54;;;;;;;3.33;1.05;;;23.50;36.00;;;;;;4930034;28;45380;-64
2022/07/10 15:13:20;;;;;;;1.95;0.68;;;23.40;36.00;;;;;;4907784;28;45122;-66
2022/07/10 15:15:48;;;;;;;0.75;0.40;;;23.40;36.00;;;;;;4922456;28;45661;-59
2022/07/10 15:18:13;;;;;;;1.13;0.45;;;23.40;36.00;;;;;;4922981;28;46243;-60
2022/07/10 15:20:39;;;;;;;1.02;0.60;;;23.40;35.90;;;;;;4929034;28;45630;-59
2022/07/10 15:23:05;;;;;;;2.25;0.60;;;23.50;35.90;;;;;;4929907;28;45819;-59
2022/07/10 15:25:30;;;;;;;1.02;0.32;;;23.50;35.90;;;;;;4928222;28;44944;-60
2022/07/10 15:27:56;;;;;;;0.55;0.32;;;23.50;35.80;;;;;;4932778;28;47240;-60
2022/07/10 15:30:21;;;;;;;1.67;0.50;;;23.40;35.90;;;;;;4925988;28;45737;-62
2022/07/10 15:32:47;;;;;;;2.35;0.40;;;23.40;36.00;;;;;;4918678;28;46066;-65
2022/07/10 15:35:13;;;;;;;3.13;0.50;;;23.40;36.00;;;;;;4927906;28;45608;-58
2022/07/10 15:37:38;;;;;;;0.52;0.10;;;23.50;36.00;;;;;;4927867;28;46013;-57
2022/07/10 15:40:04;;;;;;;1.33;0.45;;;23.50;35.80;;;;;;4926187;28;45324;-59
2022/07/10 15:42:30;;;;;;;2.42;0.32;;;23.60;36.00;;;;;;4927450;28;46633;-58
2022/07/10 15:44:56;;;;;;;2.03;0.55;;;23.60;36.10;;;;;;4930870;28;45839;-60
2022/07/10 15:47:21;;;;;;;0.93;0.30;;;23.60;35.90;;;;;;4928301;28;46860;-58
2022/07/10 15:49:47;;;;;;;0.82;0.30;;;23.70;35.80;;;;;;4927822;28;45753;-64
2022/07/10 15:52:13;;;;;;;0.60;0.25;;;23.70;35.70;;;;;;4929603;28;46187;-55
2022/07/10 15:54:39;;;;;;;0.80;0.22;;;23.70;35.60;;;;;;4926496;28;45897;-61
2022/07/10 15:57:05;;;;;;;0.95;0.25;;;23.70;35.60;;;;;;4928819;28;45945;-63
2022/07/10 15:59:31;;;;;;;1.02;0.30;;;23.80;35.60;;;;;;4927801;28;45201;-60